This is the latest recevied weather packets stored in our database for station/object 2E0RGX-13. If no packets are shown the sender has not sent any weather packets the latest 10 day(s).
| Time | Temp. | Humidity | Pressure | Rain* | Wind** | Luminosity | Snow |
|---|---|---|---|---|---|---|---|
| 1778076886 | 12.78° C | 63% | 1009.8 hPa | 0 mm | - | 1 W/m² | - |
| 1778076582 | 12.22° C | 64% | 1009.9 hPa | 0 mm | - | 1 W/m² | - |
| 1778076278 | 12.22° C | 66% | 1009.8 hPa | 0 mm | - | 1 W/m² | - |
| 1778075974 | 12.22° C | 66% | 1010 hPa | 0 mm | - | 1 W/m² | - |
| 1778075670 | 11.67° C | 67% | 1009.8 hPa | 0 mm | - | 1 W/m² | - |
| 1778075366 | 12.22° C | 67% | 1010 hPa | 0 mm | - | 1 W/m² | - |
| 1778075062 | 12.22° C | 68% | 1009.7 hPa | 0 mm | - | 1 W/m² | - |
| 1778074758 | 11.67° C | 66% | 1009.9 hPa | 0 mm | - | 1 W/m² | - |
| 1778074454 | 11.67° C | 66% | 1010.1 hPa | 0 mm | - | 1 W/m² | - |
| 1778074149 | 12.22° C | 65% | 1010 hPa | 0 mm | - | 1 W/m² | - |
| 1778073846 | 12.22° C | 65% | 1010 hPa | 0 mm | - | 1 W/m² | - |
| 1778073541 | 12.22° C | 64% | 1009.7 hPa | 0 mm | - | 1 W/m² | - |
| 1778073238 | 12.78° C | 63% | 1010.1 hPa | 0 mm | - | 1 W/m² | - |
| 1778072933 | 12.78° C | 62% | 1010 hPa | 0 mm | - | 2 W/m² | - |
| 1778072629 | 12.78° C | 63% | 1009.9 hPa | 0 mm | - | 2 W/m² | - |
| 1778072325 | 12.78° C | 62% | 1009.8 hPa | 0 mm | - | 2 W/m² | - |
| 1778072021 | 12.22° C | 64% | 1010 hPa | 0 mm | - | 2 W/m² | - |
| 1778071718 | 12.22° C | 63% | 1010 hPa | 0 mm | - | 2 W/m² | - |
| 1778071414 | 12.22° C | 64% | 1009.9 hPa | 0 mm | - | 2 W/m² | - |
| 1778071110 | 12.22° C | 63% | 1009.8 hPa | 0 mm | - | 2 W/m² | - |
| 1778070806 | 12.78° C | 62% | 1009.8 hPa | 0 mm | - | 2 W/m² | - |
| 1778070502 | 12.78° C | 61% | 1009.8 hPa | 0 mm | - | 1 W/m² | - |
| 1778070197 | 13.89° C | 59% | 1009.9 hPa | 0 mm | - | 1 W/m² | - |
| 1778069893 | 14.44° C | 55% | 1009.7 hPa | 0 mm | - | 4 W/m² | - |
| 1778069589 | 13.33° C | 57% | 1009.6 hPa | 0 mm | - | 3 W/m² | - |
* Rain latest hour (hover to see other rain measurements)
** Current wind speed in m/s (hover to see current wind gust speed)